Time;durP1;ratioP1;P1;durP2;ratioP2;P2;SDS_P1;SDS_P2;PMS_P1;PMS_P2;Temp;Humidity;BMP_temperature;BMP_pressure;BME280_temperature;BME280_humidity;BME280_pressure;Samples;Min_cycle;Max_cycle;Signal;HPM_P1;HPM_P2
2022/01/11 00:02:38;;;;;;;91.57;39.20;;;;;;;3.37;72.18;100363.03;5181511;28;20530;-68
2022/01/11 00:05:40;;;;;;;86.95;36.38;;;;;;;3.28;72.45;100363.44;5183249;28;20069;-68
2022/01/11 00:08:32;;;;;;;94.80;39.33;;;;;;;2.95;72.85;100358.66;5191611;28;20107;-68
2022/01/11 00:11:22;;;;;;;121.57;44.17;;;;;;;3.09;72.49;100331.91;5198945;28;20046;-68
2022/01/11 00:14:12;;;;;;;106.35;42.75;;;;;;;3.39;72.31;100344.63;5194723;28;20072;-68
2022/01/11 00:17:03;;;;;;;96.18;40.50;;;;;;;3.39;72.31;100350.72;5192522;28;20071;-68
2022/01/11 00:19:53;;;;;;;92.85;40.28;;;;;;;3.26;72.79;100358.25;5198860;28;20044;-68
2022/01/11 00:26:01;;;;;;;95.13;38.25;;;;;;;3.18;72.47;100359.47;5186612;28;20054;-68
2022/01/11 00:28:51;;;;;;;92.10;38.30;;;;;;;3.35;71.70;100366.66;5201258;28;20046;-68
2022/01/11 00:31:49;;;;;;;85.28;37.45;;;;;;;3.34;71.81;100336.94;5167693;28;20053;-68
2022/01/11 00:34:49;;;;;;;90.57;37.65;;;;;;;3.29;71.47;100344.16;5165522;28;20057;-68
2022/01/11 00:37:40;;;;;;;91.32;37.22;;;;;;;3.38;71.50;100369.13;5176431;28;20044;-69
2022/01/11 00:40:30;;;;;;;93.35;40.63;;;;;;;3.38;71.83;100371.75;5174848;28;20103;-68
2022/01/11 00:43:23;;;;;;;90.90;38.00;;;;;;;3.38;71.72;100370.00;5180383;28;20516;-68
2022/01/11 00:46:14;;;;;;;88.00;38.22;;;;;;;3.32;71.99;100357.16;5171727;28;20104;-68
2022/01/11 00:49:05;;;;;;;78.32;36.45;;;;;;;3.46;71.65;100373.13;5194929;28;20060;-68
2022/01/11 00:51:55;;;;;;;81.30;37.30;;;;;;;3.26;72.60;100363.50;5189730;28;20041;-68
2022/01/11 00:54:45;;;;;;;82.63;38.00;;;;;;;3.38;72.03;100358.63;5188110;28;20087;-68
2022/01/11 00:57:35;;;;;;;82.70;35.63;;;;;;;3.46;71.96;100364.41;5204233;28;20138;-68
2022/01/11 01:00:25;;;;;;;91.40;36.58;;;;;;;3.36;71.83;100363.09;5175942;28;20049;-68
2022/01/11 01:03:16;;;;;;;86.35;37.78;;;;;;;3.22;72.33;100363.69;5205220;28;20153;-68
2022/01/11 01:06:07;;;;;;;86.00;37.03;;;;;;;3.43;71.68;100367.16;5183210;28;20053;-68
2022/01/11 01:08:58;;;;;;;81.53;35.80;;;;;;;3.39;71.41;100362.97;5172505;28;20042;-70
2022/01/11 01:11:49;;;;;;;84.25;37.25;;;;;;;3.46;71.36;100367.03;5190149;28;20120;-68
2022/01/11 01:14:41;;;;;;;81.40;35.53;;;;;;;3.36;71.65;100365.72;5174013;28;20072;-68
2022/01/11 01:17:31;;;;;;;84.85;36.25;;;;;;;3.45;71.31;100375.84;5183070;28;20195;-68
2022/01/11 01:20:22;;;;;;;79.25;34.20;;;;;;;3.38;71.11;100383.09;5182955;28;20037;-68
2022/01/11 01:23:13;;;;;;;86.00;35.25;;;;;;;3.41;70.95;100382.09;5185574;28;20542;-68
2022/01/11 01:26:05;;;;;;;81.03;35.50;;;;;;;3.46;71.68;100374.91;5195365;28;20139;-68
2022/01/11 01:28:57;;;;;;;76.68;34.72;;;;;;;3.57;70.87;100385.78;5184774;28;20519;-68
2022/01/11 01:31:47;;;;;;;75.28;34.80;;;;;;;3.41;71.08;100379.47;5179904;28;20052;-68
2022/01/11 01:34:37;;;;;;;79.20;36.03;;;;;;;3.45;71.90;100386.31;5184931;28;20120;-68
2022/01/11 01:37:27;;;;;;;78.68;34.08;;;;;;;3.45;71.02;100392.41;5169461;28;20104;-68
2022/01/11 01:40:18;;;;;;;76.25;33.33;;;;;;;3.29;71.77;100380.88;5202649;28;20147;-68
2022/01/11 01:43:11;;;;;;;71.18;32.65;;;;;;;3.36;71.57;100394.56;5185232;28;20057;-68
2022/01/11 01:46:01;;;;;;;82.40;34.90;;;;;;;3.20;71.74;100382.09;5195348;28;20071;-68
2022/01/11 01:48:51;;;;;;;83.05;36.15;;;;;;;3.36;72.01;100389.31;5172989;28;20129;-68
2022/01/11 01:51:42;;;;;;;80.35;35.78;;;;;;;3.33;72.05;100395.53;5187203;28;20049;-68
2022/01/11 01:54:33;;;;;;;79.07;34.20;;;;;;;3.39;71.43;100397.06;5186270;28;20064;-68
2022/01/11 01:57:24;;;;;;;81.70;36.72;;;;;;;3.27;72.43;100401.88;5186572;28;20041;-68
2022/01/11 02:00:15;;;;;;;78.80;33.85;;;;;;;3.40;71.55;100410.09;5174180;28;20095;-68
2022/01/11 02:03:10;;;;;;;79.57;35.17;;;;;;;3.40;71.48;100401.38;5202621;28;20570;-68
2022/01/11 02:06:01;;;;;;;67.03;32.35;;;;;;;3.40;71.78;100402.22;5184006;28;20179;-68
2022/01/11 02:08:51;;;;;;;77.10;35.08;;;;;;;3.47;71.57;100400.19;5176276;28;20188;-68
2022/01/11 02:11:41;;;;;;;72.72;33.17;;;;;;;3.41;71.05;100389.97;5182183;28;20046;-68
2022/01/11 02:14:32;;;;;;;84.07;35.03;;;;;;;3.49;71.27;100398.38;5183982;28;20797;-68
2022/01/11 02:17:29;;;;;;;78.97;33.85;;;;;;;3.48;71.80;100399.31;5168733;28;20226;-68
2022/01/11 02:20:21;;;;;;;78.03;34.25;;;;;;;3.47;71.61;100400.19;5167227;28;20061;-68
2022/01/11 02:23:12;;;;;;;71.78;34.00;;;;;;;3.53;71.30;100394.72;5198931;28;20056;-68
2022/01/11 02:26:03;;;;;;;73.55;34.40;;;;;;;3.58;70.91;100403.25;5202234;28;20083;-68
2022/01/11 02:28:54;;;;;;;81.65;34.45;;;;;;;3.40;71.24;100383.03;5188163;28;20038;-68
2022/01/11 02:31:44;;;;;;;80.60;36.90;;;;;;;3.40;71.18;100383.88;5187612;28;20041;-68
2022/01/11 02:34:34;;;;;;;77.47;36.25;;;;;;;3.32;72.15;100404.34;5181715;28;20046;-68
2022/01/11 02:37:28;;;;;;;81.65;36.47;;;;;;;2.96;74.49;100404.06;5168554;28;20048;-68
2022/01/11 02:40:38;;;;;;;88.68;35.30;;;;;;;3.05;73.82;100395.84;5185128;28;20519;-68
2022/01/11 02:43:29;;;;;;;74.00;35.60;;;;;;;3.11;73.75;100390.31;5188478;28;20139;-68
2022/01/11 02:46:21;;;;;;;86.30;35.85;;;;;;;3.36;72.74;100397.19;5181443;28;20422;-68
2022/01/11 02:49:14;;;;;;;77.80;35.58;;;;;;;3.52;71.80;100399.09;5173238;28;20562;-68
2022/01/11 02:52:09;;;;;;;77.40;35.45;;;;;;;3.23;72.03;100402.94;5177198;28;20053;-68
2022/01/11 02:55:08;;;;;;;86.30;36.15;;;;;;;3.34;72.89;100399.00;5172305;28;20582;-68
2022/01/11 02:57:59;;;;;;;71.90;34.65;;;;;;;3.40;72.44;100386.50;5180412;28;20044;-68
2022/01/11 03:00:52;;;;;;;77.40;34.28;;;;;;;3.51;72.05;100401.81;5182387;28;20045;-68
2022/01/11 03:03:43;;;;;;;78.32;33.17;;;;;;;3.44;72.00;100400.34;5180960;28;20108;-68
2022/01/11 03:06:34;;;;;;;69.95;34.15;;;;;;;3.48;71.05;100401.94;5179717;28;20797;-68
2022/01/11 03:09:28;;;;;;;73.07;33.60;;;;;;;3.41;71.77;100403.06;5168281;28;20752;-68
2022/01/11 03:12:21;;;;;;;70.05;34.22;;;;;;;3.49;71.96;100403.63;5168312;28;20065;-68
2022/01/11 03:15:13;;;;;;;78.75;34.42;;;;;;;3.46;71.55;100394.13;5179799;28;20080;-68
2022/01/11 03:18:06;;;;;;;;;;;;;;;3.43;71.55;100394.25;5171200;28;20512;-68
2022/01/11 03:21:01;;;;;;;73.35;33.00;;;;;;;3.42;71.34;100391.69;5181458;28;20067;-68
2022/01/11 03:23:52;;;;;;;71.28;34.08;;;;;;;3.49;72.58;100398.38;5182553;28;20099;-68
2022/01/11 03:26:44;;;;;;;72.55;31.88;;;;;;;3.58;71.63;100395.38;5180861;28;20049;-68
2022/01/11 03:29:39;;;;;;;67.05;31.17;;;;;;;3.59;70.83;100404.94;5178229;28;20068;-68
2022/01/11 03:32:30;;;;;;;75.30;33.17;;;;;;;3.40;70.50;100398.75;5186013;28;20064;-70
2022/01/11 03:35:31;;;;;;;74.38;33.22;;;;;;;3.51;71.37;100392.16;5185351;28;20117;-70
2022/01/11 03:38:22;;;;;;;81.40;33.20;;;;;;;3.46;71.33;100398.50;5187290;28;20042;-70
2022/01/11 03:41:20;;;;;;;77.22;34.00;;;;;;;3.34;71.31;100402.47;5175720;28;20557;-69
2022/01/11 03:44:10;;;;;;;74.97;34.22;;;;;;;3.56;71.38;100412.09;5185294;28;20049;-69
2022/01/11 03:47:01;;;;;;;71.75;33.55;;;;;;;3.59;70.37;100417.22;5167276;28;20455;-69
2022/01/11 03:49:51;;;;;;;75.38;32.88;;;;;;;3.43;71.74;100430.09;5170967;28;20563;-70
2022/01/11 03:52:43;;;;;;;72.75;33.00;;;;;;;3.29;71.62;100412.31;5197716;28;20127;-69
2022/01/11 03:56:00;;;;;;;74.10;34.40;;;;;;;3.40;71.38;100425.81;5179339;28;20061;-70
2022/01/11 03:58:58;;;;;;;74.38;31.63;;;;;;;3.25;71.65;100424.69;5169668;28;20523;-69
2022/01/11 04:01:51;;;;;;;77.75;33.78;;;;;;;3.28;71.81;100421.97;5183690;28;20141;-69
2022/01/11 04:04:42;;;;;;;81.60;34.85;;;;;;;3.05;71.82;100406.31;5180815;28;20309;-68
2022/01/11 04:07:32;;;;;;;73.72;33.10;;;;;;;3.10;72.28;100406.13;5176565;28;20050;-69
2022/01/11 04:10:22;;;;;;;70.78;32.90;;;;;;;3.33;71.88;100431.41;5180431;28;20117;-68
2022/01/11 04:13:13;;;;;;;78.55;35.38;;;;;;;3.34;71.65;100428.69;5187333;28;20127;-69
2022/01/11 04:16:04;;;;;;;81.75;35.10;;;;;;;3.08;73.61;100434.13;5186496;28;20107;-69
2022/01/11 04:18:55;;;;;;;79.10;33.88;;;;;;;3.12;72.93;100431.34;5187859;28;20119;-69
2022/01/11 04:21:47;;;;;;;68.72;33.35;;;;;;;3.21;72.95;100435.34;5189686;28;20438;-69
2022/01/11 04:24:37;;;;;;;86.30;35.10;;;;;;;2.97;73.39;100438.03;5181358;28;20176;-69
2022/01/11 04:27:27;;;;;;;74.80;35.08;;;;;;;2.86;74.85;100445.47;5180388;28;20060;-69
2022/01/11 04:30:19;;;;;;;84.68;35.95;;;;;;;3.22;72.62;100440.56;5203149;28;20060;-69
2022/01/11 04:33:10;;;;;;;75.43;35.90;;;;;;;3.18;73.74;100452.09;5201648;28;20048;-69
2022/01/11 04:36:01;;;;;;;77.65;35.67;;;;;;;3.00;72.96;100408.25;5200336;28;20044;-68
2022/01/11 04:38:51;;;;;;;78.22;35.58;;;;;;;3.37;72.33;100459.19;5186437;28;20068;-69
2022/01/11 04:41:41;;;;;;;76.05;34.33;;;;;;;3.41;72.08;100448.53;5193850;28;20094;-70
2022/01/11 04:44:32;;;;;;;93.88;36.30;;;;;;;3.28;72.54;100448.19;5190518;28;20049;-72
2022/01/11 04:47:23;;;;;;;89.15;37.47;;;;;;;3.24;73.22;100457.06;5200445;28;20138;-70
2022/01/11 04:50:14;;;;;;;83.72;36.65;;;;;;;3.14;73.78;100458.34;5182159;28;20424;-70
2022/01/11 04:53:05;;;;;;;88.47;38.67;;;;;;;3.37;72.54;100451.31;5172736;28;20104;-70
2022/01/11 04:55:55;;;;;;;95.18;38.75;;;;;;;3.39;73.16;100460.84;5175517;28;20049;-71
2022/01/11 04:58:46;;;;;;;94.65;37.97;;;;;;;3.20;73.39;100465.97;5205617;28;20056;-70
2022/01/11 05:01:37;;;;;;;100.75;38.97;;;;;;;3.00;74.20;100455.41;5196232;28;20084;-70
2022/01/11 05:04:28;;;;;;;89.95;39.45;;;;;;;3.04;74.90;100455.22;5180944;28;20425;-70
2022/01/11 05:07:19;;;;;;;84.47;38.47;;;;;;;2.97;74.14;100453.75;5170902;28;20614;-71
2022/01/11 05:10:10;;;;;;;94.00;38.53;;;;;;;3.24;73.40;100471.94;5176192;28;20065;-68
2022/01/11 05:13:01;;;;;;;87.85;37.80;;;;;;;3.23;73.05;100476.31;5186726;28;20586;-69
2022/01/11 05:15:51;;;;;;;89.70;37.20;;;;;;;3.32;72.94;100464.63;5181577;28;20046;-69
2022/01/11 05:18:43;;;;;;;84.68;37.85;;;;;;;3.35;72.65;100468.91;5172303;28;20058;-69
2022/01/11 05:21:33;;;;;;;84.40;36.20;;;;;;;3.35;72.83;100466.28;5159718;28;20496;-69
2022/01/11 05:24:23;;;;;;;95.03;39.53;;;;;;;3.35;72.50;100458.41;5201961;28;20414;-68
2022/01/11 05:27:17;;;;;;;95.93;40.08;;;;;;;3.36;71.68;100465.34;5178795;28;20061;-71
2022/01/11 05:30:09;;;;;;;90.50;37.63;;;;;;;3.35;72.22;100468.91;5187751;28;20053;-68
2022/01/11 05:33:00;;;;;;;88.32;37.85;;;;;;;3.29;72.46;100457.72;5176399;28;20048;-67
2022/01/11 05:35:50;;;;;;;84.63;37.15;;;;;;;3.39;71.96;100480.97;5207950;28;20049;-68
2022/01/11 05:38:41;;;;;;;94.95;38.47;;;;;;;3.06;72.68;100466.50;5184954;28;20673;-67
2022/01/11 05:41:32;;;;;;;94.03;38.45;;;;;;;3.24;72.33;100478.03;5174211;28;20049;-67
2022/01/11 05:44:22;;;;;;;88.10;36.95;;;;;;;3.19;72.33;100472.13;5179053;28;20538;-67
2022/01/11 05:47:12;;;;;;;78.22;34.60;;;;;;;3.28;71.95;100489.28;5183574;28;20060;-67
2022/01/11 05:50:05;;;;;;;92.30;36.03;;;;;;;3.15;72.39;100494.13;5172465;28;20053;-67
2022/01/11 05:52:56;;;;;;;109.63;41.17;;;;;;;3.19;72.81;100482.63;5174411;28;20107;-70
2022/01/11 05:55:46;;;;;;;95.78;39.70;;;;;;;3.18;72.89;100503.63;5182655;28;20049;-67
2022/01/11 05:58:36;;;;;;;102.00;41.28;;;;;;;3.19;73.48;100511.44;5203141;28;20049;-68
2022/01/11 06:01:27;;;;;;;99.30;41.47;;;;;;;3.19;73.43;100515.84;5174796;28;20526;-71
2022/01/11 06:04:17;;;;;;;98.15;41.92;;;;;;;3.25;73.28;100513.81;5198336;28;20049;-69
2022/01/11 06:07:09;;;;;;;103.63;41.92;;;;;;;3.24;72.54;100504.22;5192524;28;20057;-67
2022/01/11 06:09:59;;;;;;;99.82;41.85;;;;;;;3.21;73.13;100514.00;5173505;28;20073;-67
2022/01/11 06:12:50;;;;;;;92.47;40.13;;;;;;;3.28;73.35;100511.09;5201239;28;20064;-67
2022/01/11 06:15:40;;;;;;;95.45;39.30;;;;;;;3.34;73.30;100519.59;5202624;28;20175;-68
2022/01/11 06:18:32;;;;;;;103.28;39.95;;;;;;;3.21;74.45;100527.09;5190311;28;20040;-67
2022/01/11 06:21:43;;;;;;;99.78;41.42;;;;;;;3.23;73.67;100513.03;5175787;28;20049;-67
2022/01/11 06:24:33;;;;;;;96.45;39.30;;;;;;;3.46;72.57;100521.75;5198181;28;20040;-67
2022/01/11 06:27:23;;;;;;;102.88;40.72;;;;;;;3.50;72.56;100525.94;5202168;28;20052;-68
2022/01/11 06:30:15;;;;;;;96.50;38.90;;;;;;;3.43;72.22;100524.50;5201610;28;20133;-73
2022/01/11 06:33:06;;;;;;;99.85;40.13;;;;;;;3.26;72.42;100523.38;5167416;28;20045;-67
2022/01/11 06:35:57;;;;;;;97.95;38.97;;;;;;;3.23;72.90;100528.75;5175447;28;20077;-68
2022/01/11 06:38:47;;;;;;;102.20;39.35;;;;;;;3.45;72.36;100535.78;5194978;28;20060;-68
2022/01/11 06:41:43;;;;;;;101.03;40.75;;;;;;;3.44;72.45;100541.91;5194470;28;20073;-70
2022/01/11 06:44:38;;;;;;;104.10;38.60;;;;;;;3.42;71.52;100542.00;5193151;28;20527;-69
2022/01/11 06:47:30;;;;;;;76.03;29.83;;;;;;;3.37;72.46;100543.09;5180727;28;20068;-71
2022/01/11 06:50:20;;;;;;;114.47;43.00;;;;;;;3.45;72.29;100543.66;5205361;28;20095;-70
2022/01/11 06:53:11;;;;;;;109.75;41.85;;;;;;;3.00;73.42;100526.16;5184500;28;20053;-67
2022/01/11 06:56:07;;;;;;;105.97;41.53;;;;;;;3.32;73.29;100552.91;5192618;28;20415;-66
2022/01/11 06:58:59;;;;;;;108.70;41.10;;;;;;;3.35;72.92;100550.19;5186305;28;20416;-70
2022/01/11 07:01:49;;;;;;;96.63;39.30;;;;;;;3.39;72.74;100554.38;5189598;28;20506;-68
2022/01/11 07:04:56;;;;;;;102.88;40.20;;;;;;;3.50;72.50;100557.41;5195169;28;20511;-70
2022/01/11 07:07:47;;;;;;;91.80;38.63;;;;;;;3.25;72.78;100547.06;5167693;28;20052;-73
2022/01/11 07:10:39;;;;;;;105.15;41.25;;;;;;;3.28;73.56;100562.66;5175096;28;20128;-71
2022/01/11 07:13:30;;;;;;;98.10;39.72;;;;;;;3.40;72.80;100571.81;5173509;28;20604;-70
2022/01/11 07:16:20;;;;;;;96.30;39.38;;;;;;;3.41;72.66;100574.38;5178091;28;20057;-68
2022/01/11 07:19:12;;;;;;;102.80;42.15;;;;;;;3.43;72.22;100579.56;5166507;28;20655;-66
2022/01/11 07:22:04;;;;;;;95.28;38.53;;;;;;;3.34;72.99;100582.53;5180479;28;20042;-67
2022/01/11 07:24:57;;;;;;;95.82;40.17;;;;;;;3.35;73.35;100579.03;5175111;28;20103;-71
2022/01/11 07:27:47;;;;;;;97.93;39.95;;;;;;;3.41;72.62;100584.00;5187613;28;20041;-67
2022/01/11 07:30:38;;;;;;;95.90;38.33;;;;;;;3.41;71.97;100569.16;5167394;28;20085;-70
2022/01/11 07:33:29;;;;;;;114.28;42.20;;;;;;;3.61;71.86;100599.84;5178056;28;20057;-69
2022/01/11 07:36:19;;;;;;;103.78;39.45;;;;;;;3.63;71.53;100597.97;5182230;28;20061;-69
2022/01/11 07:39:15;;;;;;;103.40;40.55;;;;;;;3.59;71.93;100603.44;5171197;28;20500;-68
2022/01/11 07:42:06;;;;;;;115.53;48.20;;;;;;;3.66;71.48;100599.63;5177818;28;20042;-73
2022/01/11 07:45:17;;;;;;;111.38;45.97;;;;;;;3.55;72.00;100597.44;5195092;28;20047;-69
2022/01/11 07:48:07;;;;;;;105.53;44.67;;;;;;;3.46;72.84;100608.28;5167093;28;20045;-67
2022/01/11 07:51:05;;;;;;;150.57;58.25;;;;;;;3.53;71.78;100600.13;5167493;28;20061;-72
2022/01/11 07:53:57;;;;;;;128.25;52.20;;;;;;;3.62;72.23;100604.16;5173925;28;20439;-67
2022/01/11 07:56:48;;;;;;;104.53;42.75;;;;;;;3.81;71.57;100612.16;5173528;28;20052;-66
2022/01/11 07:59:39;;;;;;;91.70;39.10;;;;;;;3.73;71.78;100601.09;5178093;28;20565;-69
2022/01/11 08:02:45;;;;;;;84.47;37.67;;;;;;;3.77;71.66;100607.94;5176361;28;20140;-66
2022/01/11 08:05:50;;;;;;;91.38;38.97;;;;;;;3.83;71.50;100609.47;5184225;28;20419;-68
2022/01/11 08:08:42;;;;;;;86.03;38.17;;;;;;;3.73;71.71;100615.06;5173481;28;20133;-71
2022/01/11 08:11:32;;;;;;;106.30;42.58;;;;;;;3.61;73.33;100620.81;5171790;28;20059;-70
2022/01/11 08:14:25;;;;;;;96.05;42.35;;;;;;;3.81;71.86;100624.41;5186616;28;20052;-66
2022/01/11 08:17:17;;;;;;;82.35;37.72;;;;;;;3.79;71.19;100610.50;5201299;28;20084;-66
2022/01/11 08:20:08;;;;;;;88.30;39.08;;;;;;;3.82;71.71;100616.47;5176268;28;20057;-72
2022/01/11 08:22:58;;;;;;;94.07;40.03;;;;;;;3.82;71.58;100613.00;5185244;28;20519;-69
2022/01/11 08:25:52;;;;;;;100.22;40.92;;;;;;;3.95;70.49;100622.94;5210386;28;20041;-73
2022/01/11 08:28:44;;;;;;;93.18;39.67;;;;;;;4.03;70.45;100629.66;5177066;28;20042;-68
2022/01/11 08:31:35;;;;;;;85.78;38.65;;;;;;;3.75;70.93;100592.25;5184950;28;20693;-70
2022/01/11 08:34:26;;;;;;;84.13;36.97;;;;;;;4.06;70.89;100642.66;5196714;28;20191;-68
2022/01/11 08:37:17;;;;;;;95.40;38.05;;;;;;;4.06;71.33;100626.91;5176658;28;20527;-72
2022/01/11 08:40:11;;;;;;;93.30;37.58;;;;;;;4.02;71.84;100649.81;5184110;28;20665;-71
2022/01/11 08:43:04;;;;;;;86.22;37.00;;;;;;;4.07;71.92;100646.97;5188780;28;20040;-69
2022/01/11 08:46:02;;;;;;;80.85;36.50;;;;;;;4.00;71.70;100635.88;5183010;28;20069;-70
2022/01/11 08:48:55;;;;;;;80.10;36.42;;;;;;;4.20;71.24;100656.91;5183496;28;20103;-67
2022/01/11 08:51:45;;;;;;;85.35;36.15;;;;;;;3.91;71.73;100652.00;5190115;28;20045;-66
2022/01/11 08:54:37;;;;;;;76.43;34.53;;;;;;;4.09;71.77;100634.66;5191200;28;20061;-72
2022/01/11 08:57:30;;;;;;;94.03;41.88;;;;;;;4.28;71.39;100645.25;5183442;28;20069;-68
2022/01/11 09:00:20;;;;;;;80.25;36.03;;;;;;;4.23;71.51;100642.81;5159822;28;20073;-69
2022/01/11 09:03:17;;;;;;;77.32;35.70;;;;;;;4.23;70.81;100656.78;5170571;28;20116;-68
2022/01/11 09:06:11;;;;;;;76.63;34.50;;;;;;;4.08;71.69;100652.19;5185044;28;20052;-69
2022/01/11 09:09:03;;;;;;;77.68;33.80;;;;;;;4.10;71.13;100662.59;5194359;28;20056;-71
2022/01/11 09:11:54;;;;;;;71.85;34.90;;;;;;;4.27;70.75;100661.91;5195499;28;20043;-70
2022/01/11 09:14:47;;;;;;;68.75;34.20;;;;;;;4.16;72.11;100663.22;5197539;28;20465;-69
2022/01/11 09:17:38;;;;;;;75.53;35.80;;;;;;;4.24;71.68;100661.16;5178926;28;20107;-70
2022/01/11 09:20:29;;;;;;;76.60;36.30;;;;;;;4.71;70.03;100668.81;5185370;28;20104;-67
2022/01/11 09:23:19;;;;;;;82.57;36.50;;;;;;;4.69;70.31;100659.28;5188250;28;20095;-70
2022/01/11 09:26:10;;;;;;;74.72;36.53;;;;;;;4.61;70.27;100678.00;5184669;28;20056;-70
2022/01/11 09:29:08;;;;;;;77.63;36.17;;;;;;;4.80;70.32;100664.94;5163356;28;20049;-68
2022/01/11 09:32:01;;;;;;;80.18;34.50;;;;;;;4.80;70.16;100670.19;5182811;28;20512;-72
2022/01/11 09:34:54;;;;;;;74.85;36.47;;;;;;;4.78;70.75;100672.03;5169487;28;20046;-71
2022/01/11 09:37:49;;;;;;;71.60;33.85;;;;;;;4.99;69.47;100674.63;5170197;28;20053;-69
2022/01/11 09:40:39;;;;;;;68.18;32.47;;;;;;;4.96;69.37;100670.34;5169878;28;20045;-72
2022/01/11 09:43:31;;;;;;;73.47;33.92;;;;;;;5.03;69.43;100671.78;5169839;28;20108;-67
2022/01/11 09:46:28;;;;;;;75.10;34.45;;;;;;;5.01;69.33;100676.28;5183382;28;20176;-70
2022/01/11 09:49:20;;;;;;;65.40;31.52;;;;;;;5.02;69.09;100671.88;5185526;28;20057;-68
2022/01/11 09:52:14;;;;;;;69.32;31.80;;;;;;;5.06;69.84;100670.81;5182710;28;20632;-67
2022/01/11 09:55:06;;;;;;;61.08;29.35;;;;;;;4.40;71.70;100674.50;5175965;28;20052;-66
2022/01/11 09:57:57;;;;;;;65.50;32.20;;;;;;;4.92;70.33;100679.31;5188742;28;20044;-67
2022/01/11 10:01:16;;;;;;;65.65;32.20;;;;;;;5.16;69.67;100664.22;5127654;28;20056;-70
2022/01/11 10:04:32;;;;;;;71.80;33.97;;;;;;;5.25;69.19;100644.56;5197108;28;20106;-69
2022/01/11 10:07:49;;;;;;;69.95;33.45;;;;;;;5.30;69.63;100661.84;5183690;28;20072;-69
2022/01/11 10:10:44;;;;;;;61.08;32.05;;;;;;;5.52;68.86;100680.09;5174815;28;20199;-66
2022/01/11 10:13:38;;;;;;;66.60;33.72;;;;;;;5.06;69.98;100676.91;5175224;28;20060;-70
2022/01/11 10:16:35;;;;;;;66.18;31.75;;;;;;;5.55;69.25;100672.06;5194652;28;20053;-68
2022/01/11 10:19:28;;;;;;;66.82;31.95;;;;;;;5.58;68.28;100673.72;5194340;28;20068;-70
2022/01/11 10:22:22;;;;;;;63.60;30.48;;;;;;;5.58;68.79;100664.03;5178301;28;20580;-68
2022/01/11 10:25:14;;;;;;;45.00;22.53;;;;;;;5.53;68.38;100676.56;5185301;28;20057;-68
2022/01/11 10:28:04;;;;;;;58.25;30.25;;;;;;;5.64;67.71;100662.91;5184376;28;20655;-67
2022/01/11 10:31:00;;;;;;;57.40;28.63;;;;;;;5.64;67.79;100673.44;5179606;28;20227;-68
2022/01/11 10:34:04;;;;;;;66.07;31.52;;;;;;;5.40;69.16;100639.44;5172513;28;20049;-69
2022/01/11 10:37:03;;;;;;;58.90;29.58;;;;;;;6.06;66.58;100670.59;5173525;28;20713;-67
2022/01/11 10:40:18;;;;;;;63.75;28.90;;;;;;;5.83;67.87;100673.44;5176644;28;20120;-70
2022/01/11 10:43:13;;;;;;;60.00;28.27;;;;;;;6.07;66.60;100661.75;5168069;28;20065;-67
2022/01/11 10:46:03;;;;;;;63.42;28.60;;;;;;;6.11;66.45;100667.72;5168460;28;20233;-70
2022/01/11 10:48:54;;;;;;;53.08;28.05;;;;;;;5.81;67.84;100667.38;5167881;28;20046;-69
2022/01/11 10:51:44;;;;;;;59.10;28.42;;;;;;;5.83;67.92;100658.50;5177026;28;20057;-66
2022/01/11 10:54:35;;;;;;;63.25;29.02;;;;;;;6.01;67.35;100656.78;5182714;28;20042;-66
2022/01/11 10:57:32;;;;;;;57.97;29.52;;;;;;;6.38;68.13;100664.66;5183101;28;20152;-69
2022/01/11 11:00:28;;;;;;;54.78;28.13;;;;;;;6.14;68.26;100670.22;5181065;28;20546;-68
2022/01/11 11:03:22;;;;;;;52.03;27.63;;;;;;;6.13;67.90;100675.56;5184520;28;20049;-67
2022/01/11 11:06:19;;;;;;;53.00;26.85;;;;;;;6.38;68.23;100672.56;5181700;28;20052;-66
2022/01/11 11:09:17;;;;;;;63.78;32.45;;;;;;;6.66;65.63;100665.00;5157186;28;20056;-67
2022/01/11 11:12:24;;;;;;;50.30;25.15;;;;;;;6.48;66.08;100665.91;5175391;28;20057;-67
2022/01/11 11:15:35;;;;;;;48.42;25.58;;;;;;;6.54;66.52;100665.59;5181945;28;20050;-66
2022/01/11 11:18:47;;;;;;;53.05;26.90;;;;;;;6.56;66.00;100653.22;5178537;28;20065;-66
2022/01/11 11:21:43;;;;;;;49.78;25.02;;;;;;;6.61;65.42;100660.88;5173843;28;20048;-67
2022/01/11 11:24:33;;;;;;;48.53;24.45;;;;;;;6.97;63.45;100661.63;5196222;28;20044;-67
2022/01/11 11:27:26;;;;;;;49.00;25.40;;;;;;;6.92;65.07;100668.94;5175783;28;20058;-72
2022/01/11 11:30:16;;;;;;;53.67;25.05;;;;;;;7.06;64.16;100674.34;5184795;28;20052;-68
2022/01/11 11:33:07;;;;;;;52.80;26.30;;;;;;;7.13;63.05;100661.66;5193322;28;20537;-67
2022/01/11 11:35:57;;;;;;;50.60;24.10;;;;;;;6.96;66.42;100667.84;5203001;28;20051;-67
2022/01/11 11:38:55;;;;;;;50.92;25.55;;;;;;;7.29;65.50;100654.66;5200670;28;20098;-67
2022/01/11 11:41:53;;;;;;;50.38;26.77;;;;;;;7.47;64.08;100665.97;5197805;28;20065;-68
2022/01/11 11:44:46;;;;;;;46.35;24.38;;;;;;;7.30;63.55;100666.06;5201307;28;20416;-68
2022/01/11 11:47:38;;;;;;;41.90;21.27;;;;;;;7.10;63.70;100650.44;5190632;28;20417;-68
2022/01/11 11:50:28;;;;;;;46.80;22.85;;;;;;;7.23;64.42;100660.25;5192936;28;20186;-68
2022/01/11 11:53:24;;;;;;;37.58;18.80;;;;;;;7.25;62.88;100655.75;5186640;28;20061;-68
2022/01/11 11:56:18;;;;;;;41.13;20.90;;;;;;;7.46;62.77;100660.81;5177176;28;20156;-68
2022/01/11 11:59:09;;;;;;;39.45;18.73;;;;;;;7.35;61.67;100656.13;5210642;28;20511;-69
2022/01/11 12:02:00;;;;;;;33.92;16.80;;;;;;;7.52;61.04;100661.31;5174467;28;20038;-68
2022/01/11 12:04:52;;;;;;;18.27;9.38;;;;;;;7.04;56.37;100649.81;5185423;28;20113;-67
2022/01/11 12:07:44;;;;;;;13.93;7.07;;;;;;;6.97;56.48;100629.97;5180962;28;20159;-68
2022/01/11 12:10:50;;;;;;;9.18;5.15;;;;;;;7.21;55.80;100646.28;5207060;28;20042;-68
2022/01/11 12:13:51;;;;;;;7.72;3.83;;;;;;;6.87;53.70;100646.38;5189504;28;20149;-68
2022/01/11 12:16:43;;;;;;;6.55;3.92;;;;;;;6.79;53.25;100644.13;5177887;28;20061;-68
2022/01/11 12:19:42;;;;;;;9.10;4.03;;;;;;;6.52;53.33;100644.63;5181947;28;20721;-68
2022/01/11 12:22:40;;;;;;;6.18;3.03;;;;;;;6.75;53.84;100647.84;5166965;28;20669;-69
2022/01/11 12:25:33;;;;;;;7.60;4.20;;;;;;;7.36;52.60;100641.13;5176443;28;20052;-68
2022/01/11 12:28:24;;;;;;;9.90;5.38;;;;;;;7.16;52.43;100631.66;5201355;28;20570;-69
2022/01/11 12:31:25;;;;;;;7.80;4.57;;;;;;;7.38;52.16;100633.97;5189471;28;20045;-68
2022/01/11 12:34:16;;;;;;;7.00;3.67;;;;;;;7.48;51.09;100627.25;5191836;28;20081;-68
2022/01/11 12:37:06;;;;;;;7.53;4.35;;;;;;;7.40;53.26;100632.09;5175065;28;20076;-68
2022/01/11 12:40:02;;;;;;;6.35;3.70;;;;;;;7.13;53.50;100627.38;5201510;28;20470;-69
2022/01/11 12:42:59;;;;;;;4.68;3.20;;;;;;;7.18;53.20;100627.97;5201523;28;20104;-68
2022/01/11 12:46:05;;;;;;;5.85;2.80;;;;;;;6.87;53.45;100626.13;5201050;28;20068;-68
2022/01/11 12:48:59;;;;;;;6.38;3.55;;;;;;;7.29;53.31;100625.63;5193301;28;20057;-68
2022/01/11 12:51:54;;;;;;;5.85;3.75;;;;;;;7.01;51.73;100623.59;5187219;28;20050;-68
2022/01/11 12:54:49;;;;;;;8.25;4.03;;;;;;;6.98;53.12;100622.91;5205587;28;20048;-68
2022/01/11 12:57:39;;;;;;;7.68;4.47;;;;;;;7.34;52.30;100630.63;5175754;28;20127;-69
2022/01/11 13:00:30;;;;;;;7.18;4.57;;;;;;;6.87;54.46;100620.84;5190153;28;20458;-68
2022/01/11 13:03:20;;;;;;;8.23;4.55;;;;;;;6.50;55.31;100621.91;5192001;28;20053;-69
2022/01/11 13:06:10;;;;;;;6.82;4.18;;;;;;;6.07;54.87;100631.94;5186275;28;20045;-68
2022/01/11 13:09:08;;;;;;;6.63;4.07;;;;;;;6.48;54.15;100632.50;5197275;28;20071;-68
2022/01/11 13:11:58;;;;;;;9.15;4.88;;;;;;;6.51;54.57;100628.88;5200910;28;20053;-70
2022/01/11 13:15:03;;;;;;;7.28;4.70;;;;;;;6.46;54.00;100621.19;5191100;28;20577;-68
2022/01/11 13:17:57;;;;;;;7.25;4.55;;;;;;;6.45;53.50;100616.84;5202853;28;20458;-70
2022/01/11 13:21:09;;;;;;;7.05;4.40;;;;;;;6.72;53.89;100625.16;5203770;28;20041;-69
2022/01/11 13:24:22;;;;;;;7.47;4.80;;;;;;;7.22;52.62;100626.91;5179941;28;20516;-70